Terminal Aerodrome Forecast
Issued by NWS

Home | Current Version | Previous Version | Text Only | Print | Product List | Glossary On
Versions: 1 2 3 4 5 6 7 8 9 10 11 12 13 14 15
000
FTUS46 KMTR 051737
TAFSNS
TAF
KSNS 051737Z 0518/0618 VRB03KT P6SM BKN100
     FM051900 28011KT P6SM VCSH SCT035 BKN100
     FM060300 29006KT P6SM VCSH BKN035 OVC080
     FM060800 23006KT P6SM VCSH BKN012 OVC030
     FM061300 17015KT P6SM VCSH BKN015 OVC035
     FM061700 17012KT P6SM VCSH SCT015 BKN035 BKN080=

USA.gov is the U.S. government's official web portal to all federal, state and local government web resources and services.